Time;durP1;ratioP1;P1;durP2;ratioP2;P2;SDS_P1;SDS_P2;PMS_P1;PMS_P2;Temp;Humidity;BMP_temperature;BMP_pressure;BME280_temperature;BME280_humidity;BME280_pressure;Samples;Min_cycle;Max_cycle;Signal;HPM_P1;HPM_P2
2022/11/03 00:02:19;;;;;;;1.80;0.60;;;21.80;59.70;;;;;;6208637;28;20044;-36
2022/11/03 00:08:40;;;;;;;1.10;0.43;;;21.90;59.60;;;;;;6200580;28;20131;-36
2022/11/03 00:11:45;;;;;;;1.00;0.47;;;21.90;59.70;;;;;;6187052;28;20087;-36
2022/11/03 00:14:47;;;;;;;1.13;0.40;;;21.50;59.50;;;;;;6184840;28;21034;-36
2022/11/03 00:17:49;;;;;;;0.50;0.30;;;21.60;59.80;;;;;;6203360;28;20040;-35
2022/11/03 00:20:57;;;;;;;1.02;0.40;;;21.70;59.80;;;;;;6199882;28;20042;-36
2022/11/03 00:24:01;;;;;;;0.85;0.40;;;21.90;59.70;;;;;;6201106;28;20080;-36
2022/11/03 00:27:02;;;;;;;0.82;0.40;;;21.50;59.60;;;;;;6202626;28;20041;-35
2022/11/03 00:30:04;;;;;;;;;;;21.70;59.80;;;;;;6204605;28;20140;-35
2022/11/03 00:33:06;;;;;;;0.30;0.20;;;21.50;59.90;;;;;;6204150;28;19929;-36
2022/11/03 00:36:12;;;;;;;1.08;0.40;;;22.00;59.80;;;;;;6203677;28;20332;-35
2022/11/03 00:39:17;;;;;;;0.45;0.30;;;21.70;59.70;;;;;;6199953;28;20297;-36
2022/11/03 00:42:18;;;;;;;0.75;0.50;;;21.40;59.80;;;;;;6192708;28;20047;-36
2022/11/03 00:45:19;;;;;;;;;;;21.90;60.00;;;;;;6193548;28;20053;-35
2022/11/03 00:48:29;;;;;;;0.70;0.30;;;22.20;60.40;;;;;;6206178;28;19929;-35
2022/11/03 00:51:33;;;;;;;0.93;0.30;;;21.60;59.90;;;;;;6192409;28;20187;-36
2022/11/03 00:54:34;;;;;;;0.77;0.40;;;21.60;60.70;;;;;;6189034;28;21522;-36
2022/11/03 00:57:35;;;;;;;;;;;21.50;60.00;;;;;;6205570;28;20046;-36
2022/11/03 01:00:37;;;;;;;0.47;0.30;;;21.50;60.20;;;;;;6199082;28;20035;-36
2022/11/03 01:03:40;;;;;;;1.00;0.40;;;21.80;60.20;;;;;;6205430;28;20069;-35
2022/11/03 01:06:51;;;;;;;0.40;0.30;;;21.50;60.00;;;;;;6208436;28;20040;-35
2022/11/03 01:09:53;;;;;;;0.55;0.32;;;22.00;60.30;;;;;;6213745;28;20057;-36
2022/11/03 01:12:54;;;;;;;0.30;0.20;;;22.00;60.50;;;;;;6213553;28;20088;-35
2022/11/03 01:15:56;;;;;;;;;;;21.70;60.40;;;;;;6214348;28;20106;-36
2022/11/03 01:18:58;;;;;;;0.77;0.30;;;21.60;60.50;;;;;;6215573;28;19931;-36
2022/11/03 01:22:03;;;;;;;0.50;0.30;;;21.50;60.10;;;;;;6212391;28;20859;-35
2022/11/03 01:25:10;;;;;;;0.63;0.25;;;21.40;60.10;;;;;;6205692;28;20067;-36
2022/11/03 01:28:12;;;;;;;;;;;21.90;60.50;;;;;;6210344;28;20045;-36
2022/11/03 01:31:15;;;;;;;0.20;0.20;;;21.60;60.60;;;;;;6211885;28;19928;-35
2022/11/03 01:34:19;;;;;;;0.40;0.32;;;21.70;60.30;;;;;;6170335;28;20898;-35
2022/11/03 01:37:21;;;;;;;0.70;0.20;;;21.70;60.20;;;;;;6212172;28;20046;-36
2022/11/03 01:40:23;;;;;;;0.50;0.20;;;21.40;60.40;;;;;;6204841;28;20037;-36
2022/11/03 01:43:26;;;;;;;1.00;0.30;;;21.80;60.60;;;;;;6193014;28;20629;-36
2022/11/03 01:46:28;;;;;;;0.68;0.30;;;21.40;60.30;;;;;;6212264;28;20045;-36
2022/11/03 01:49:35;;;;;;;0.50;0.40;;;21.70;60.60;;;;;;6210225;28;20970;-36
2022/11/03 01:52:41;;;;;;;0.20;0.10;;;21.60;60.30;;;;;;6212813;28;20064;-36
2022/11/03 01:55:43;;;;;;;0.40;0.30;;;21.50;60.40;;;;;;6194862;28;20055;-35
2022/11/03 01:58:49;;;;;;;0.70;0.20;;;21.50;60.50;;;;;;6216410;28;20203;-35
2022/11/03 02:01:50;;;;;;;0.80;0.32;;;21.90;60.70;;;;;;6217940;28;20136;-36
2022/11/03 02:04:54;;;;;;;0.60;0.30;;;21.80;60.80;;;;;;6206208;28;20108;-36
2022/11/03 02:07:59;;;;;;;0.57;0.20;;;21.90;60.70;;;;;;6210573;28;20833;-36
2022/11/03 02:12:05;;;;;;;0.50;0.40;;;21.70;60.60;;;;;;6200751;28;20128;-36
2022/11/03 02:14:22;;;;;;;0.30;0.20;;;21.70;60.70;;;;;;6197187;28;20448;-35
2022/11/03 02:17:26;;;;;;;0.38;0.20;;;21.60;60.80;;;;;;6201170;28;20071;-36
2022/11/03 02:20:30;;;;;;;1.63;0.40;;;21.60;60.50;;;;;;6216271;28;20045;-36
2022/11/03 02:23:39;;;;;;;0.43;0.20;;;21.60;60.40;;;;;;6215925;28;20057;-36
2022/11/03 02:26:47;;;;;;;0.30;0.20;;;21.50;60.40;;;;;;6208523;28;20120;-36
2022/11/03 02:29:49;;;;;;;0.35;0.20;;;21.70;60.50;;;;;;6209094;28;20044;-36
2022/11/03 02:32:56;;;;;;;0.93;0.43;;;21.40;60.40;;;;;;6214066;28;20094;-36
2022/11/03 02:36:04;;;;;;;1.00;0.22;;;21.00;60.10;;;;;;6210118;28;20078;-36
2022/11/03 02:39:11;;;;;;;0.60;0.40;;;21.50;60.20;;;;;;6210319;28;20269;-35
2022/11/03 02:42:17;;;;;;;0.82;0.20;;;21.80;60.30;;;;;;6187419;28;20072;-35
2022/11/03 02:45:21;;;;;;;0.52;0.20;;;21.60;60.40;;;;;;6205120;28;21772;-35
2022/11/03 02:48:23;;;;;;;0.52;0.30;;;21.70;60.30;;;;;;6206279;28;20155;-35
2022/11/03 02:51:25;;;;;;;1.00;0.40;;;21.70;60.30;;;;;;6205630;28;20036;-36
2022/11/03 02:54:29;;;;;;;;;;;21.70;60.30;;;;;;6206791;28;20279;-36
2022/11/03 02:57:34;;;;;;;0.73;0.40;;;21.50;60.30;;;;;;6206040;28;20310;-35
2022/11/03 03:00:41;;;;;;;0.30;0.20;;;21.70;60.10;;;;;;6213434;28;20734;-36
2022/11/03 03:03:47;;;;;;;0.40;0.20;;;21.40;59.90;;;;;;6199147;28;20069;-35
2022/11/03 03:06:53;;;;;;;0.50;0.20;;;21.70;60.10;;;;;;6219427;28;20064;-36
2022/11/03 03:10:00;;;;;;;0.28;0.20;;;21.50;59.90;;;;;;6215406;28;20132;-35
2022/11/03 03:13:06;;;;;;;0.63;0.30;;;21.20;59.70;;;;;;6216736;28;20048;-36
2022/11/03 03:16:14;;;;;;;1.05;0.20;;;21.30;59.70;;;;;;6211956;28;20127;-36
2022/11/03 03:19:25;;;;;;;0.30;0.28;;;21.50;59.80;;;;;;6216505;28;20175;-36
2022/11/03 03:22:31;;;;;;;0.30;0.20;;;21.80;60.00;;;;;;6219687;28;20075;-36
2022/11/03 03:25:37;;;;;;;0.80;0.30;;;21.10;59.50;;;;;;6207073;28;21161;-35
2022/11/03 03:28:43;;;;;;;0.55;0.20;;;21.30;59.60;;;;;;6191131;28;20040;-35
2022/11/03 03:31:50;;;;;;;0.50;0.30;;;21.80;59.80;;;;;;6210332;28;20791;-35
2022/11/03 03:34:53;;;;;;;0.30;0.20;;;21.20;59.50;;;;;;6202931;28;20538;-35
2022/11/03 03:38:00;;;;;;;0.20;0.15;;;21.50;59.60;;;;;;6204250;28;20512;-36
2022/11/03 03:41:02;;;;;;;0.70;0.20;;;21.00;59.30;;;;;;6203080;28;20412;-35
2022/11/03 03:44:12;;;;;;;0.10;0.10;;;21.70;59.70;;;;;;6206438;28;20044;-36
2022/11/03 03:47:22;;;;;;;0.50;0.10;;;21.30;59.40;;;;;;6188587;28;20402;-35
2022/11/03 03:50:26;;;;;;;0.20;0.10;;;21.80;59.60;;;;;;6191280;28;20433;-35
2022/11/03 03:53:29;;;;;;;0.35;0.13;;;21.40;59.40;;;;;;6213415;28;20071;-35
2022/11/03 03:56:35;;;;;;;0.50;0.20;;;21.50;59.50;;;;;;6206360;28;20151;-36
2022/11/03 03:59:38;;;;;;;0.75;0.20;;;21.50;59.40;;;;;;6211823;28;20097;-35
2022/11/03 04:02:39;;;;;;;0.30;0.20;;;21.60;59.60;;;;;;6210221;28;20930;-35
2022/11/03 04:05:40;;;;;;;;;;;21.50;59.60;;;;;;6206222;28;20729;-35
2022/11/03 04:08:42;;;;;;;0.30;0.30;;;21.40;59.70;;;;;;6213391;28;19963;-35
2022/11/03 04:24:53;;;;;;;0.73;0.30;;;21.50;59.60;;;;;;6210561;28;20055;-35
2022/11/03 04:27:55;;;;;;;;;;;21.50;59.70;;;;;;6201028;28;20053;-36
2022/11/03 04:30:58;;;;;;;0.43;0.10;;;21.40;59.70;;;;;;6197195;28;20398;-36
2022/11/03 04:34:02;;;;;;;0.65;0.25;;;21.70;59.60;;;;;;6195039;28;20148;-36
2022/11/03 04:37:08;;;;;;;1.38;0.30;;;21.20;59.20;;;;;;6197217;28;21045;-37
2022/11/03 04:40:14;;;;;;;0.22;0.15;;;21.60;59.30;;;;;;6215620;28;20033;-37
2022/11/03 04:43:18;;;;;;;0.60;0.30;;;21.30;58.90;;;;;;6196208;28;20056;-36
2022/11/03 04:46:25;;;;;;;0.75;0.25;;;21.60;59.10;;;;;;6196663;28;20084;-37
2022/11/03 04:49:27;;;;;;;1.05;0.30;;;21.50;59.00;;;;;;6192529;28;20033;-36
2022/11/03 04:52:28;;;;;;;;;;;21.30;58.90;;;;;;6207704;28;20213;-37
2022/11/03 04:55:30;;;;;;;0.43;0.20;;;21.20;59.00;;;;;;6208777;28;20042;-37
2022/11/03 04:58:34;;;;;;;1.73;0.47;;;21.70;59.20;;;;;;6205086;28;20045;-36
2022/11/03 05:01:36;;;;;;;0.63;0.20;;;21.60;58.70;;;;;;6190974;28;20979;-36
2022/11/03 05:04:38;;;;;;;0.60;0.30;;;20.90;58.60;;;;;;6211719;28;20040;-37
2022/11/03 05:07:39;;;;;;;0.77;0.30;;;21.50;58.80;;;;;;6213379;28;20966;-36
2022/11/03 05:10:40;;;;;;;;;;;21.10;58.50;;;;;;6210519;28;20076;-36
2022/11/03 05:13:42;;;;;;;0.65;0.30;;;21.50;58.80;;;;;;6212886;28;19924;-36
2022/11/03 05:16:48;;;;;;;0.85;0.30;;;21.60;58.80;;;;;;6206064;28;20057;-36
2022/11/03 05:19:53;;;;;;;0.68;0.30;;;21.60;58.50;;;;;;6191226;28;20386;-36
2022/11/03 05:22:55;;;;;;;0.70;0.30;;;21.70;58.60;;;;;;6218947;28;20405;-36
2022/11/03 05:25:58;;;;;;;1.33;0.50;;;22.20;58.80;;;;;;6210321;28;20048;-37
2022/11/03 05:29:03;;;;;;;1.65;0.60;;;21.60;58.40;;;;;;6215190;28;21040;-37
2022/11/03 05:32:12;;;;;;;1.92;0.60;;;21.50;58.30;;;;;;6214598;28;20054;-37
2022/11/03 05:35:21;;;;;;;1.20;0.40;;;21.60;58.30;;;;;;6211970;28;20050;-37
2022/11/03 05:38:23;;;;;;;0.65;0.32;;;21.50;58.20;;;;;;6217056;28;20939;-37
2022/11/03 05:41:28;;;;;;;1.17;0.45;;;21.30;58.40;;;;;;6204772;28;20970;-37
2022/11/03 05:44:35;;;;;;;0.88;0.55;;;21.20;58.20;;;;;;6208137;28;20064;-37
2022/11/03 05:47:39;;;;;;;0.75;0.30;;;21.50;58.30;;;;;;6187716;28;20905;-37
2022/11/03 05:50:41;;;;;;;0.68;0.20;;;21.70;58.50;;;;;;6178773;28;20079;-37
2022/11/03 05:53:43;;;;;;;0.50;0.38;;;21.10;58.30;;;;;;6211903;28;20039;-39
2022/11/03 05:56:46;;;;;;;0.80;0.40;;;21.40;58.40;;;;;;6205149;28;20053;-37
2022/11/03 05:59:53;;;;;;;0.88;0.40;;;21.70;58.60;;;;;;6196498;28;20210;-37
2022/11/03 06:02:56;;;;;;;0.52;0.32;;;21.10;58.20;;;;;;6209116;28;20847;-37
2022/11/03 06:05:58;;;;;;;0.40;0.28;;;21.30;58.40;;;;;;6199717;28;20080;-37
2022/11/03 06:09:02;;;;;;;0.55;0.30;;;21.10;58.60;;;;;;6183795;28;20033;-37
2022/11/03 06:12:14;;;;;;;1.23;0.63;;;21.50;58.60;;;;;;6204834;28;20038;-37
2022/11/03 06:15:23;;;;;;;;;;;21.40;58.70;;;;;;6203864;28;20082;-37
2022/11/03 06:18:30;;;;;;;0.70;0.40;;;21.60;59.10;;;;;;6207432;28;19994;-37
2022/11/03 06:21:34;;;;;;;0.60;0.40;;;21.40;58.90;;;;;;6184770;28;20079;-37
2022/11/03 06:24:36;;;;;;;0.63;0.47;;;21.50;59.20;;;;;;6198693;28;20083;-37
2022/11/03 06:27:38;;;;;;;0.60;0.50;;;21.60;59.30;;;;;;6203265;28;20584;-37
2022/11/03 06:30:40;;;;;;;0.43;0.30;;;21.40;59.10;;;;;;6208234;28;20144;-37
2022/11/03 06:33:43;;;;;;;0.60;0.32;;;21.20;59.00;;;;;;6190197;28;20099;-37
2022/11/03 06:36:45;;;;;;;0.60;0.40;;;21.70;59.70;;;;;;6200638;28;20885;-37
2022/11/03 06:39:47;;;;;;;;;;;21.40;59.50;;;;;;6198252;28;20067;-37
2022/11/03 06:42:48;;;;;;;;;;;20.90;59.40;;;;;;6200121;28;19968;-37
2022/11/03 06:45:52;;;;;;;0.95;0.52;;;21.10;59.70;;;;;;6193175;28;19929;-37
2022/11/03 06:48:58;;;;;;;0.65;0.50;;;21.00;59.20;;;;;;6183436;28;20675;-37
2022/11/03 06:52:20;;;;;;;0.90;0.47;;;21.50;59.70;;;;;;6170281;28;20081;-37
2022/11/03 06:55:24;;;;;;;0.40;0.30;;;21.10;59.70;;;;;;6178576;28;20943;-37
2022/11/03 06:58:29;;;;;;;0.88;0.60;;;21.60;60.10;;;;;;6169232;28;20049;-37
2022/11/03 07:01:34;;;;;;;0.80;0.32;;;21.40;60.00;;;;;;6167315;28;20138;-37
2022/11/03 07:04:36;;;;;;;0.40;0.32;;;21.50;60.00;;;;;;6183068;28;21362;-37
2022/11/03 07:07:38;;;;;;;0.75;0.40;;;21.50;60.20;;;;;;6174285;28;20052;-37
2022/11/03 07:10:40;;;;;;;0.80;0.40;;;21.80;60.40;;;;;;6174027;28;20160;-37
2022/11/03 07:13:42;;;;;;;1.13;0.43;;;21.90;60.10;;;;;;6175024;28;20395;-36
2022/11/03 07:16:46;;;;;;;0.75;0.43;;;20.90;59.90;;;;;;6158871;28;20045;-36
2022/11/03 07:19:49;;;;;;;0.70;0.28;;;21.60;60.40;;;;;;6131486;28;20046;-36
2022/11/03 07:22:51;;;;;;;1.05;0.35;;;21.40;60.40;;;;;;6162427;28;20057;-36
2022/11/03 07:25:56;;;;;;;1.35;0.52;;;21.30;60.20;;;;;;6138543;28;20042;-37
2022/11/03 07:28:59;;;;;;;0.50;0.50;;;22.10;60.60;;;;;;6135262;28;20171;-36
2022/11/03 07:32:05;;;;;;;0.90;0.45;;;21.40;60.30;;;;;;6152310;28;20081;-36
2022/11/03 07:35:29;;;;;;;0.90;0.47;;;21.40;60.10;;;;;;6123666;28;21192;-37
2022/11/03 07:38:53;;;;;;;1.38;0.50;;;21.40;60.10;;;;;;6104762;28;22447;-36
2022/11/03 07:41:55;;;;;;;0.47;0.40;;;21.70;60.10;;;;;;6131800;28;20056;-36
2022/11/03 07:44:56;;;;;;;0.30;0.30;;;21.50;60.30;;;;;;6102693;28;20049;-37
2022/11/03 07:47:58;;;;;;;;;;;21.60;60.40;;;;;;6107391;28;20041;-36
2022/11/03 07:51:19;;;;;;;0.55;0.30;;;21.10;60.10;;;;;;6094564;28;19929;-36
2022/11/03 07:54:23;;;;;;;0.90;0.47;;;21.40;60.20;;;;;;6102883;23;20044;-36
2022/11/03 07:57:29;;;;;;;0.70;0.50;;;21.70;60.30;;;;;;6053837;28;20200;-36
2022/11/03 08:00:31;;;;;;;0.43;0.30;;;21.40;60.00;;;;;;6044848;28;20045;-37
2022/11/03 08:03:42;;;;;;;0.90;0.60;;;21.10;60.00;;;;;;6040150;28;20139;-36
2022/11/03 08:06:44;;;;;;;1.85;0.35;;;21.30;60.00;;;;;;6009368;28;20389;-36
2022/11/03 08:09:45;;;;;;;1.40;0.70;;;21.00;60.00;;;;;;6063895;28;20123;-36
2022/11/03 08:12:47;;;;;;;0.63;0.40;;;21.10;60.40;;;;;;6035369;28;20136;-37
2022/11/03 08:15:48;;;;;;;;;;;21.70;60.70;;;;;;6022783;28;20150;-39
2022/11/03 08:18:50;;;;;;;1.80;0.40;;;21.60;61.30;;;;;;6050215;28;19929;-38
2022/11/03 08:21:52;;;;;;;;;;;21.40;61.10;;;;;;6036316;28;20041;-38
2022/11/03 08:24:54;;;;;;;1.50;0.38;;;21.90;61.60;;;;;;6039258;28;20042;-37
2022/11/03 08:27:55;;;;;;;2.38;0.15;;;21.50;61.10;;;;;;6021483;28;22275;-37
2022/11/03 08:31:00;;;;;;;0.60;0.30;;;21.30;61.20;;;;;;6011231;28;20055;-36
2022/11/03 08:34:03;;;;;;;3.10;0.30;;;21.50;61.00;;;;;;6039073;28;20049;-38
2022/11/03 08:37:05;;;;;;;0.52;0.30;;;21.40;61.10;;;;;;6029575;28;20159;-39
2022/11/03 08:40:08;;;;;;;0.28;0.28;;;21.10;60.70;;;;;;6039150;28;20048;-38
2022/11/03 08:43:09;;;;;;;0.13;0.13;;;21.60;60.80;;;;;;6047854;28;20048;-40
2022/11/03 08:46:11;;;;;;;;;;;21.70;60.50;;;;;;6029606;28;20040;-39
2022/11/03 08:49:19;;;;;;;0.40;0.20;;;22.20;61.00;;;;;;6033688;28;21012;-38
2022/11/03 08:52:21;;;;;;;0.32;0.15;;;21.40;60.10;;;;;;6020434;28;20041;-39
2022/11/03 08:55:23;;;;;;;0.20;0.10;;;21.80;60.10;;;;;;6031063;28;20044;-36
2022/11/03 08:58:25;;;;;;;0.40;0.30;;;21.60;59.60;;;;;;6005990;28;21329;-38
2022/11/03 09:01:27;;;;;;;1.45;0.25;;;21.50;59.30;;;;;;5973412;28;20111;-38
2022/11/03 09:04:29;;;;;;;0.30;0.20;;;22.00;59.40;;;;;;6017652;28;20075;-38
2022/11/03 09:07:31;;;;;;;0.30;0.22;;;21.90;59.20;;;;;;6009340;28;20049;-40
2022/11/03 09:10:53;;;;;;;0.52;0.20;;;21.90;59.00;;;;;;5983314;28;21847;-39
2022/11/03 09:13:54;;;;;;;;;;;21.70;58.70;;;;;;5996308;28;20052;-40
2022/11/03 09:16:56;;;;;;;0.10;0.10;;;21.50;58.50;;;;;;6009247;28;20066;-39
2022/11/03 09:19:57;;;;;;;0.40;0.30;;;21.90;58.70;;;;;;6007911;28;20312;-40
2022/11/03 09:23:00;;;;;;;0.32;0.13;;;22.00;58.50;;;;;;6002760;28;20049;-40
2022/11/03 09:26:01;;;;;;;0.28;0.22;;;22.10;58.30;;;;;;6026659;28;20262;-38
2022/11/03 09:29:03;;;;;;;0.10;0.10;;;22.10;58.10;;;;;;5961925;28;20130;-38
2022/11/03 09:32:07;;;;;;;0.40;0.20;;;21.60;57.80;;;;;;5997339;28;22428;-39
2022/11/03 09:35:11;;;;;;;0.40;0.17;;;21.90;57.80;;;;;;5979523;28;20150;-38
2022/11/03 09:38:13;;;;;;;0.73;0.45;;;21.90;57.80;;;;;;6013890;28;20088;-39
2022/11/03 09:41:16;;;;;;;1.92;0.40;;;21.80;57.70;;;;;;5994223;28;20040;-38
2022/11/03 09:44:36;;;;;;;0.45;0.20;;;21.90;58.30;;;;;;6032970;28;21217;-38
2022/11/03 09:47:41;;;;;;;0.35;0.10;;;21.90;57.60;;;;;;5970396;28;20056;-38
2022/11/03 09:50:52;;;;;;;0.40;0.20;;;22.70;58.10;;;;;;5985967;28;20071;-38
2022/11/03 09:53:58;;;;;;;0.35;0.20;;;21.90;57.40;;;;;;6007805;28;20045;-38
2022/11/03 09:57:11;;;;;;;0.82;0.25;;;22.40;57.70;;;;;;5994302;28;20075;-36
2022/11/03 10:00:18;;;;;;;0.60;0.30;;;21.40;57.30;;;;;;5941498;28;20195;-38
2022/11/03 10:03:20;;;;;;;0.60;0.40;;;22.10;57.70;;;;;;6001094;28;20160;-36
2022/11/03 10:06:22;;;;;;;;;;;21.80;57.70;;;;;;6010949;28;20050;-36
2022/11/03 10:09:28;;;;;;;0.55;0.35;;;21.60;57.40;;;;;;6030978;28;20514;-38
2022/11/03 10:12:34;;;;;;;0.43;0.20;;;21.40;57.40;;;;;;6001176;28;20045;-38
2022/11/03 10:15:40;;;;;;;0.30;0.20;;;21.70;57.80;;;;;;5995952;28;20064;-38
2022/11/03 10:18:43;;;;;;;0.20;0.20;;;21.30;57.40;;;;;;5993353;28;20057;-38
2022/11/03 10:21:44;;;;;;;0.20;0.20;;;21.80;57.80;;;;;;5942207;28;20375;-38
2022/11/03 10:24:47;;;;;;;0.43;0.20;;;22.00;57.90;;;;;;5991978;28;20253;-38
2022/11/03 10:28:11;;;;;;;0.22;0.22;;;21.80;57.80;;;;;;5999656;28;20142;-38
2022/11/03 10:31:19;;;;;;;0.20;0.10;;;21.90;57.80;;;;;;6006649;28;20041;-38
2022/11/03 10:34:26;;;;;;;0.20;0.20;;;21.80;57.90;;;;;;5999373;28;20179;-39
2022/11/03 10:37:28;;;;;;;0.50;0.20;;;21.60;57.70;;;;;;5999047;28;20056;-38
2022/11/03 10:40:35;;;;;;;0.20;0.20;;;21.40;58.00;;;;;;6008886;28;20041;-38
2022/11/03 10:44:06;;;;;;;0.20;0.20;;;21.80;58.10;;;;;;5984069;28;20205;-38
2022/11/03 10:47:22;;;;;;;0.10;0.10;;;21.50;58.10;;;;;;5944275;28;20134;-38
2022/11/03 10:50:26;;;;;;;0.50;0.30;;;21.70;58.10;;;;;;5998485;28;20088;-38
2022/11/03 10:53:27;;;;;;;0.70;0.50;;;21.80;73.60;;;;;;5961504;28;20045;-38
2022/11/03 10:56:33;;;;;;;;;;;21.60;58.00;;;;;;6043789;28;21034;-38
2022/11/03 10:59:36;;;;;;;0.77;0.40;;;21.80;58.30;;;;;;6020599;28;19935;-38
2022/11/03 11:02:41;;;;;;;0.60;0.40;;;21.50;57.70;;;;;;5997420;28;26614;-38
2022/11/03 11:05:45;;;;;;;0.40;0.20;;;21.50;57.90;;;;;;6026565;28;20098;-38
2022/11/03 11:08:48;;;;;;;0.40;0.20;;;21.90;58.10;;;;;;6044196;28;20047;-38
2022/11/03 11:12:06;;;;;;;1.30;0.25;;;21.80;58.00;;;;;;6014136;28;20048;-38
2022/11/03 11:15:37;;;;;;;0.20;0.20;;;21.80;58.10;;;;;;6023552;28;20041;-38
2022/11/03 11:19:02;;;;;;;0.77;0.20;;;21.70;57.90;;;;;;6016655;28;20131;-38
2022/11/03 11:22:13;;;;;;;0.17;0.13;;;21.50;57.80;;;;;;6018705;28;20282;-39
2022/11/03 11:25:16;;;;;;;0.28;0.10;;;21.80;58.00;;;;;;6044082;28;20083;-38
2022/11/03 11:28:19;;;;;;;0.20;0.20;;;21.30;57.70;;;;;;6039764;28;20147;-38
2022/11/03 11:31:31;;;;;;;0.65;0.38;;;21.10;57.60;;;;;;6059904;28;20037;-39
2022/11/03 11:34:40;;;;;;;0.38;0.20;;;21.90;58.00;;;;;;6070477;28;20135;-39
2022/11/03 11:37:42;;;;;;;0.10;0.10;;;21.80;58.00;;;;;;6074335;28;20052;-38
2022/11/03 11:40:51;;;;;;;0.70;0.35;;;21.70;57.70;;;;;;6089705;28;20081;-39
2022/11/03 11:43:55;;;;;;;0.20;0.20;;;21.40;57.60;;;;;;6105955;28;20041;-38
2022/11/03 11:46:57;;;;;;;0.28;0.15;;;21.70;57.70;;;;;;6101270;28;20161;-39
2022/11/03 11:50:16;;;;;;;0.22;0.15;;;21.70;57.90;;;;;;6088207;28;20115;-39
2022/11/03 11:53:21;;;;;;;0.20;0.20;;;21.90;57.30;;;;;;6075122;28;20175;-38
2022/11/03 11:56:28;;;;;;;0.17;0.17;;;21.70;57.60;;;;;;6102545;28;20038;-39
2022/11/03 11:59:30;;;;;;;;;;;21.50;57.50;;;;;;6111377;28;20037;-38
2022/11/03 12:02:32;;;;;;;0.85;0.30;;;21.90;57.80;;;;;;6093001;28;19929;-39
2022/11/03 12:05:34;;;;;;;;;;;21.50;57.50;;;;;;6094474;28;20192;-38
2022/11/03 12:08:36;;;;;;;0.13;0.13;;;21.70;57.80;;;;;;6093635;28;19935;-38
2022/11/03 12:11:41;;;;;;;;;;;21.60;57.80;;;;;;6090340;28;21785;-38
2022/11/03 12:14:48;;;;;;;0.13;0.13;;;22.10;58.20;;;;;;6073908;28;21748;-39
2022/11/03 12:17:49;;;;;;;0.10;0.10;;;21.50;57.70;;;;;;6108492;28;20045;-39
2022/11/03 12:20:51;;;;;;;0.60;0.30;;;21.70;57.90;;;;;;6109761;28;20045;-38
2022/11/03 12:23:52;;;;;;;;;;;21.50;57.70;;;;;;6108357;28;20041;-38
2022/11/03 12:26:54;;;;;;;0.35;0.30;;;22.20;58.10;;;;;;6087392;28;20066;-38
2022/11/03 12:29:58;;;;;;;0.70;0.20;;;21.80;57.70;;;;;;6084854;28;21276;-39
2022/11/03 12:33:00;;;;;;;0.98;0.20;;;21.40;57.20;;;;;;6064719;28;20041;-38
2022/11/03 12:36:01;;;;;;;;;;;21.70;57.20;;;;;;6068959;28;21751;-38
2022/11/03 12:39:03;;;;;;;0.10;0.10;;;21.70;57.00;;;;;;6052083;28;20059;-38
2022/11/03 12:42:07;;;;;;;;;;;21.80;57.10;;;;;;6043445;28;20049;-38
2022/11/03 12:45:12;;;;;;;0.30;0.10;;;21.60;57.10;;;;;;6044851;28;19935;-38
2022/11/03 12:48:13;;;;;;;0.20;0.20;;;21.40;56.70;;;;;;6035413;28;21346;-38
2022/11/03 12:51:16;;;;;;;;;;;22.00;56.80;;;;;;6053552;28;20045;-38
2022/11/03 12:54:17;;;;;;;0.57;0.15;;;21.50;56.60;;;;;;6040696;28;20874;-38
2022/11/03 12:57:19;;;;;;;0.65;0.20;;;21.90;56.60;;;;;;6034886;28;21389;-38
2022/11/03 13:00:21;;;;;;;;;;;21.80;56.00;;;;;;6042927;28;21657;-38
2022/11/03 13:03:22;;;;;;;0.70;0.30;;;22.30;56.40;;;;;;6029655;28;19928;-38
2022/11/03 13:06:24;;;;;;;;;;;22.10;56.00;;;;;;5990467;28;20045;-38
2022/11/03 13:09:25;;;;;;;0.30;0.20;;;22.00;56.10;;;;;;5962319;28;21360;-38
2022/11/03 13:12:30;;;;;;;;;;;21.90;55.50;;;;;;5965052;28;20052;-39
2022/11/03 13:15:33;;;;;;;0.28;0.10;;;22.10;54.50;;;;;;5988801;28;19935;-38
2022/11/03 13:18:34;;;;;;;0.20;0.20;;;21.90;55.00;;;;;;6026493;28;20192;-39
2022/11/03 13:21:37;;;;;;;0.28;0.10;;;21.80;54.30;;;;;;6043586;28;20148;-38
2022/11/03 13:24:38;;;;;;;;;;;22.00;53.80;;;;;;5992095;28;21122;-38
2022/11/03 13:27:40;;;;;;;0.20;0.10;;;22.60;53.90;;;;;;6002636;28;19936;-38
2022/11/03 13:30:43;;;;;;;1.00;0.10;;;21.40;53.10;;;;;;6043962;28;20060;-38
2022/11/03 13:33:44;;;;;;;0.15;0.10;;;21.90;53.00;;;;;;6053942;28;20571;-39
2022/11/03 13:36:46;;;;;;;0.60;0.40;;;21.80;52.80;;;;;;6046705;28;21238;-38
2022/11/03 13:39:47;;;;;;;;;;;21.90;52.00;;;;;;6020906;28;21089;-39
2022/11/03 13:42:50;;;;;;;0.50;0.25;;;21.70;51.90;;;;;;6039775;28;19936;-38
2022/11/03 13:45:52;;;;;;;0.63;0.50;;;21.90;51.90;;;;;;6023536;28;20113;-38
2022/11/03 13:48:53;;;;;;;0.40;0.30;;;22.00;51.50;;;;;;6033766;28;20242;-38
2022/11/03 13:52:16;;;;;;;0.45;0.30;;;21.80;51.20;;;;;;5960472;28;20037;-40
2022/11/03 13:55:17;;;;;;;;;;;21.90;50.90;;;;;;6013846;28;21608;-38
2022/11/03 13:58:40;;;;;;;0.17;0.17;;;21.80;51.20;;;;;;5960034;28;19937;-38
2022/11/03 14:02:02;;;;;;;0.45;0.20;;;22.00;50.60;;;;;;5971415;28;20037;-38
2022/11/03 14:05:24;;;;;;;0.47;0.20;;;21.60;50.30;;;;;;5945846;28;20037;-37
2022/11/03 14:08:28;;;;;;;1.52;0.10;;;22.00;50.10;;;;;;5941802;28;20833;-37
2022/11/03 14:14:46;;;;;;;0.20;0.10;;;22.10;49.60;;;;;;5997621;28;20783;-38
2022/11/03 14:17:48;;;;;;;0.35;0.20;;;22.10;49.50;;;;;;5975871;28;20078;-38
2022/11/03 14:20:50;;;;;;;3.60;0.20;;;21.60;49.00;;;;;;5921487;28;21236;-38
2022/11/03 14:23:52;;;;;;;0.10;0.10;;;22.00;49.20;;;;;;5916603;28;20053;-37
2022/11/03 14:26:55;;;;;;;0.28;0.20;;;22.20;49.30;;;;;;5981814;28;20081;-37
2022/11/03 14:29:58;;;;;;;0.50;0.20;;;22.00;49.10;;;;;;5972315;28;20041;-37
2022/11/03 14:33:00;;;;;;;0.20;0.10;;;22.30;49.10;;;;;;5986734;28;20048;-37
2022/11/03 14:36:01;;;;;;;0.20;0.10;;;22.20;49.20;;;;;;5995969;28;20047;-37
2022/11/03 14:39:04;;;;;;;0.38;0.20;;;22.30;49.10;;;;;;5963859;28;20160;-37
2022/11/03 14:42:13;;;;;;;0.50;0.20;;;22.00;49.10;;;;;;5969463;28;21287;-37
2022/11/03 14:45:15;;;;;;;0.10;0.10;;;21.80;48.90;;;;;;5990950;28;21681;-36
2022/11/03 14:48:17;;;;;;;0.80;0.28;;;22.30;49.10;;;;;;5988287;28;20049;-36
2022/11/03 14:51:19;;;;;;;0.10;0.10;;;21.90;48.90;;;;;;5999183;28;20507;-36
2022/11/03 14:54:20;;;;;;;0.82;0.20;;;22.30;49.10;;;;;;5959661;28;20049;-36
2022/11/03 14:57:22;;;;;;;0.10;0.10;;;22.50;49.10;;;;;;5987777;28;20241;-37
2022/11/03 15:00:23;;;;;;;;;;;22.40;49.10;;;;;;5979943;28;20052;-37
2022/11/03 15:03:26;;;;;;;0.28;0.10;;;22.10;49.00;;;;;;5968567;28;22662;-36
2022/11/03 15:06:27;;;;;;;0.77;0.10;;;22.20;49.10;;;;;;6003818;28;20785;-37
2022/11/03 15:09:29;;;;;;;;;;;22.20;49.00;;;;;;5992466;28;20037;-37
2022/11/03 15:12:30;;;;;;;0.20;0.10;;;22.50;49.20;;;;;;5997833;28;19999;-37
2022/11/03 15:15:34;;;;;;;;;;;22.20;48.90;;;;;;5991162;28;20045;-37
2022/11/03 15:18:36;;;;;;;1.55;0.20;;;22.40;49.10;;;;;;5999316;28;21267;-37
2022/11/03 15:21:37;;;;;;;1.15;0.35;;;22.50;49.00;;;;;;5993902;28;20037;-37
2022/11/03 15:24:39;;;;;;;1.05;0.40;;;22.50;48.70;;;;;;6009204;28;20171;-38
2022/11/03 15:28:00;;;;;;;0.30;0.30;;;22.30;48.50;;;;;;5973994;28;20041;-37
2022/11/03 15:31:02;;;;;;;;;;;21.90;48.20;;;;;;6019308;28;20045;-36
2022/11/03 15:34:04;;;;;;;0.82;0.20;;;22.60;48.70;;;;;;5993118;28;20063;-37
2022/11/03 15:37:10;;;;;;;0.38;0.20;;;22.50;48.90;;;;;;6008472;28;20148;-37
2022/11/03 15:40:14;;;;;;;0.55;0.20;;;22.40;48.70;;;;;;5995839;28;20326;-36
2022/11/03 15:43:19;;;;;;;0.30;0.20;;;22.50;49.10;;;;;;6004484;28;20045;-37
2022/11/03 15:46:26;;;;;;;0.65;0.25;;;22.70;48.50;;;;;;6008618;28;20057;-37
2022/11/03 15:49:29;;;;;;;0.17;0.10;;;22.30;48.50;;;;;;6016677;28;20051;-37
2022/11/03 15:52:31;;;;;;;0.77;0.30;;;22.50;48.50;;;;;;6003023;28;20052;-37
2022/11/03 15:55:34;;;;;;;0.20;0.10;;;22.60;48.50;;;;;;6024442;28;20051;-38
2022/11/03 15:58:36;;;;;;;0.68;0.25;;;22.50;47.80;;;;;;6026786;28;20053;-37
2022/11/03 16:01:40;;;;;;;0.77;0.25;;;22.40;48.20;;;;;;5984626;28;22335;-36
2022/11/03 16:04:43;;;;;;;0.47;0.20;;;22.60;47.60;;;;;;5982050;28;20052;-37
2022/11/03 16:07:47;;;;;;;0.45;0.20;;;22.70;48.00;;;;;;6023642;28;20064;-38
2022/11/03 16:10:51;;;;;;;1.15;0.10;;;23.10;47.70;;;;;;5974348;28;20084;-37
2022/11/03 16:14:00;;;;;;;0.75;0.13;;;22.30;47.70;;;;;;6020165;28;20152;-36
2022/11/03 16:17:05;;;;;;;2.35;0.35;;;22.80;47.80;;;;;;5996467;28;20041;-36
2022/11/03 16:20:09;;;;;;;0.98;0.32;;;22.90;47.80;;;;;;6026595;28;20073;-36
2022/11/03 16:23:10;;;;;;;1.30;0.20;;;22.80;47.50;;;;;;6012695;28;20048;-36
2022/11/03 16:26:13;;;;;;;0.55;0.25;;;22.60;47.70;;;;;;6021728;28;20057;-36
2022/11/03 16:29:15;;;;;;;0.57;0.40;;;22.80;47.30;;;;;;6034883;28;21211;-37
2022/11/03 16:32:16;;;;;;;0.75;0.20;;;22.70;47.90;;;;;;6022886;28;20045;-36
2022/11/03 16:35:22;;;;;;;;;;;22.20;47.30;;;;;;6047968;28;20037;-35